Time;durP1;ratioP1;P1;durP2;ratioP2;P2;SDS_P1;SDS_P2;PMS_P1;PMS_P2;Temp;Humidity;BMP_temperature;BMP_pressure;BME280_temperature;BME280_humidity;BME280_pressure;Samples;Min_cycle;Max_cycle;Signal;HPM_P1;HPM_P2
2022/08/26 00:00:26;;;;;;;0.30;0.30;;;;;;;24.71;66.11;101483.47;2101651;28;20060;-70
2022/08/26 00:01:29;;;;;;;0.20;0.20;;;;;;;24.71;66.30;101480.72;2099103;28;20105;-70
2022/08/26 00:02:31;;;;;;;0.22;0.22;;;;;;;24.72;66.33;101478.75;2108998;28;20117;-70
2022/08/26 00:03:35;;;;;;;0.20;0.20;;;;;;;24.68;66.56;101483.53;2112500;28;20056;-70
2022/08/26 00:04:37;;;;;;;0.20;0.20;;;;;;;24.66;66.26;101481.19;2113898;28;20117;-70
2022/08/26 00:05:41;;;;;;;0.30;0.30;;;;;;;24.63;66.57;101487.53;2112615;28;20055;-70
2022/08/26 00:06:44;;;;;;;0.20;0.20;;;;;;;24.66;66.05;101481.19;2112572;28;20122;-70
2022/08/26 00:07:48;;;;;;;0.30;0.30;;;;;;;24.66;66.58;101499.72;2110848;28;20055;-70
2022/08/26 00:08:52;;;;;;;0.20;0.20;;;;;;;24.67;66.13;101493.78;2107262;28;20048;-70
2022/08/26 00:09:55;;;;;;;0.20;0.20;;;;;;;24.68;66.09;101500.13;2108764;28;20067;-70
2022/08/26 00:11:00;;;;;;;0.30;0.30;;;;;;;24.70;65.90;101503.25;2113784;28;20055;-70
2022/08/26 00:12:04;;;;;;;0.20;0.20;;;;;;;24.68;65.95;101495.38;2111591;28;20459;-70
2022/08/26 00:13:09;;;;;;;0.20;0.20;;;;;;;24.67;65.84;101499.31;2111363;28;20059;-70
2022/08/26 00:14:12;;;;;;;0.30;0.30;;;;;;;24.68;65.61;101500.91;2097102;28;20523;-71
2022/08/26 00:15:18;;;;;;;0.20;0.20;;;;;;;24.72;65.83;101503.59;2105308;28;20054;-71
2022/08/26 00:16:20;;;;;;;0.20;0.20;;;;;;;24.72;66.12;101496.09;2111527;28;20067;-70
2022/08/26 00:17:23;;;;;;;0.20;0.20;;;;;;;24.72;66.04;101490.56;2100916;28;20412;-70
2022/08/26 00:18:27;;;;;;;0.20;0.20;;;;;;;24.71;65.93;101490.97;2100716;28;20052;-71
2022/08/26 00:19:34;;;;;;;0.20;0.20;;;;;;;24.73;65.71;101491.34;2104222;28;20052;-70
2022/08/26 00:20:38;;;;;;;0.20;0.20;;;;;;;24.67;65.96;101493.78;2096901;28;20140;-70
2022/08/26 00:21:46;;;;;;;0.30;0.30;;;;;;;24.59;66.57;101492.31;2102066;28;20040;-71
2022/08/26 00:22:50;;;;;;;0.30;0.30;;;;;;;24.53;66.62;101491.25;2104759;28;20127;-70
2022/08/26 00:23:53;;;;;;;0.30;0.30;;;;;;;24.51;66.29;101495.63;2113735;28;20104;-71
2022/08/26 00:24:55;;;;;;;0.20;0.20;;;;;;;24.44;66.98;101496.53;2111111;28;20510;-71
2022/08/26 00:25:58;;;;;;;0.20;0.20;;;;;;;24.47;66.22;101494.91;2108431;28;20059;-70
2022/08/26 00:27:02;;;;;;;0.20;0.20;;;;;;;24.42;67.18;101498.16;2104046;28;20052;-70
2022/08/26 00:28:08;;;;;;;0.20;0.20;;;;;;;24.40;66.87;101490.31;2096894;28;20135;-71
2022/08/26 00:29:12;;;;;;;0.20;0.20;;;;;;;24.41;66.59;101494.63;2096501;28;20090;-71
2022/08/26 00:30:25;;;;;;;0.20;0.20;;;;;;;24.38;66.97;101487.16;2097851;28;20467;-70
2022/08/26 00:31:27;;;;;;;0.20;0.20;;;;;;;24.35;67.26;101492.75;2107008;28;20059;-70
2022/08/26 00:32:33;;;;;;;0.30;0.30;;;;;;;24.38;66.60;101483.63;2105327;28;20123;-70
2022/08/26 00:33:35;;;;;;;0.30;0.30;;;;;;;24.36;66.56;101489.56;2101422;28;20110;-70
2022/08/26 00:34:38;;;;;;;0.20;0.20;;;;;;;24.34;66.65;101491.94;2098798;28;20105;-70
2022/08/26 00:35:40;;;;;;;0.20;0.20;;;;;;;24.31;66.62;101486.50;2103805;28;20056;-70
2022/08/26 00:36:48;;;;;;;0.13;0.13;;;;;;;24.28;66.96;101488.09;2107580;28;20415;-70
2022/08/26 00:37:53;;;;;;;0.20;0.20;;;;;;;24.23;67.00;101485.81;2111548;28;20048;-71
2022/08/26 00:38:57;;;;;;;0.28;0.28;;;;;;;24.22;66.87;101481.50;2109596;28;20126;-70
2022/08/26 00:39:59;;;;;;;0.20;0.20;;;;;;;24.21;67.26;101491.00;2113827;28;20051;-70
2022/08/26 00:41:04;;;;;;;0.20;0.20;;;;;;;24.20;67.17;101485.88;2107716;28;20048;-71
2022/08/26 00:42:06;;;;;;;0.20;0.20;;;;;;;24.15;67.59;101489.88;2106340;28;20396;-71
2022/08/26 00:43:10;;;;;;;0.30;0.30;;;;;;;24.18;67.16;101485.53;2106185;28;20119;-71
2022/08/26 00:44:12;;;;;;;0.30;0.30;;;;;;;24.19;67.19;101492.59;2102718;28;20048;-71
2022/08/26 00:45:16;;;;;;;0.30;0.30;;;;;;;24.16;67.25;101488.69;2105135;28;20071;-71
2022/08/26 00:46:22;;;;;;;0.15;0.15;;;;;;;24.16;67.17;101485.16;2106578;28;20048;-71
2022/08/26 00:47:30;;;;;;;0.30;0.30;;;;;;;24.15;67.27;101487.13;2106418;28;20120;-71
2022/08/26 00:48:34;;;;;;;0.28;0.28;;;;;;;24.14;67.35;101488.31;2105680;28;20572;-71
2022/08/26 00:49:40;;;;;;;0.20;0.20;;;;;;;24.15;67.18;101486.34;2106673;28;20076;-71
2022/08/26 00:50:49;;;;;;;0.30;0.30;;;;;;;24.15;67.35;101489.88;2109739;28;20463;-71
2022/08/26 00:51:57;;;;;;;0.30;0.30;;;;;;;24.13;67.58;101495.06;2105515;28;20104;-71
2022/08/26 00:53:04;;;;;;;0.30;0.30;;;;;;;24.13;67.24;101486.00;2106928;28;20052;-71
2022/08/26 00:54:10;;;;;;;0.25;0.25;;;;;;;24.16;67.18;101490.66;2098247;28;20052;-71
2022/08/26 00:55:19;;;;;;;0.20;0.20;;;;;;;24.13;67.72;101497.03;2102744;28;20071;-71
2022/08/26 00:56:28;;;;;;;0.20;0.20;;;;;;;24.13;67.43;101497.03;2101285;28;20515;-71
2022/08/26 00:57:32;;;;;;;0.22;0.22;;;;;;;24.13;67.47;101497.81;2104752;28;20087;-71
2022/08/26 00:58:36;;;;;;;0.20;0.20;;;;;;;24.15;67.46;101495.41;2104047;28;20069;-71
2022/08/26 00:59:45;;;;;;;0.20;0.20;;;;;;;24.13;67.75;101502.53;2102716;28;20071;-71
2022/08/26 01:00:47;;;;;;;0.30;0.30;;;;;;;24.15;67.33;101508.44;2109941;28;20107;-71
2022/08/26 01:01:50;;;;;;;0.30;0.30;;;;;;;24.12;67.88;101506.50;2105140;28;20051;-71
2022/08/26 01:02:54;;;;;;;0.20;0.20;;;;;;;24.13;67.65;101500.56;2108736;28;20105;-71
2022/08/26 01:03:58;;;;;;;0.20;0.20;;;;;;;24.14;67.30;101504.09;2114902;28;20048;-71
2022/08/26 01:05:03;;;;;;;0.30;0.30;;;;;;;24.13;67.83;101497.81;2114752;28;20055;-71
2022/08/26 01:06:08;;;;;;;0.20;0.20;;;;;;;24.10;67.65;101493.09;2114429;28;20051;-71
2022/08/26 01:07:15;;;;;;;0.30;0.30;;;;;;;24.10;67.42;101495.88;2115057;28;20055;-71
2022/08/26 01:08:18;;;;;;;0.22;0.22;;;;;;;24.10;67.55;101498.63;2114223;28;20506;-71
2022/08/26 01:09:21;;;;;;;0.30;0.30;;;;;;;24.08;67.69;101501.03;2114663;28;20511;-71
2022/08/26 01:10:28;;;;;;;0.20;0.20;;;;;;;24.09;67.48;101508.09;2115110;28;20126;-71
2022/08/26 01:11:31;;;;;;;0.22;0.22;;;;;;;24.08;67.60;101503.78;2100156;28;20052;-71
2022/08/26 01:12:40;;;;;;;0.20;0.20;;;;;;;24.08;67.57;101505.75;2100414;28;20109;-71
2022/08/26 01:13:43;;;;;;;;;;;;;;;23.82;68.54;101498.25;2107215;28;20091;-71
2022/08/26 01:14:47;;;;;;;0.20;0.20;;;;;;;23.95;68.04;101507.50;2113873;28;20399;-71
2022/08/26 01:15:54;;;;;;;0.20;0.20;;;;;;;23.99;67.92;101506.28;2108558;28;20056;-71
2022/08/26 01:16:57;;;;;;;0.30;0.30;;;;;;;23.95;68.10;101505.53;2098419;28;20106;-71
2022/08/26 01:17:59;;;;;;;0.30;0.30;;;;;;;23.99;68.26;101500.00;2113049;28;20043;-71
2022/08/26 01:19:09;;;;;;;0.30;0.30;;;;;;;23.97;68.19;101511.44;2104060;28;20507;-71
2022/08/26 01:20:24;;;;;;;0.20;0.20;;;;;;;23.97;68.07;101513.41;2097516;28;20052;-71
2022/08/26 01:21:32;;;;;;;0.20;0.20;;;;;;;23.97;67.95;101513.41;2097652;28;20052;-71
2022/08/26 01:22:45;;;;;;;0.20;0.20;;;;;;;23.94;68.11;101512.25;2108682;28;20435;-71
2022/08/26 01:23:50;;;;;;;0.30;0.30;;;;;;;23.93;68.01;101513.41;2112443;28;20097;-71
2022/08/26 01:24:59;;;;;;;0.20;0.20;;;;;;;23.91;68.01;101510.31;2106495;28;20120;-71
2022/08/26 01:26:11;;;;;;;0.20;0.20;;;;;;;23.93;68.39;101509.91;2113786;28;20487;-71
2022/08/26 01:27:20;;;;;;;0.20;0.20;;;;;;;23.92;68.11;101513.84;2109037;28;20499;-71
2022/08/26 01:28:28;;;;;;;0.20;0.20;;;;;;;23.96;68.02;101514.59;2105986;28;20063;-70
2022/08/26 01:29:33;;;;;;;0.20;0.20;;;;;;;23.96;68.07;101518.09;2114994;27;20051;-72
2022/08/26 01:30:38;;;;;;;0.20;0.20;;;;;;;23.95;68.50;101511.03;2113858;28;20044;-71
2022/08/26 01:31:44;;;;;;;0.28;0.28;;;;;;;23.95;68.23;101508.28;2114062;27;20055;-71
2022/08/26 01:32:48;;;;;;;0.20;0.20;;;;;;;23.87;68.47;101503.25;2114834;28;20080;-71
2022/08/26 01:33:59;;;;;;;0.20;0.20;;;;;;;23.86;68.48;101510.78;2114010;28;20088;-71
2022/08/26 01:35:01;;;;;;;0.20;0.20;;;;;;;23.81;68.95;101514.00;2114226;28;20108;-71
2022/08/26 01:36:04;;;;;;;0.20;0.20;;;;;;;23.86;68.14;101521.81;2114877;28;20075;-72
2022/08/26 01:37:12;;;;;;;0.20;0.20;;;;;;;23.88;68.20;101513.88;2113922;28;20051;-71
2022/08/26 01:38:19;;;;;;;0.30;0.30;;;;;;;23.87;68.10;101515.09;2113918;28;20231;-71
2022/08/26 01:39:24;;;;;;;0.20;0.20;;;;;;;23.82;68.22;101515.53;2114935;28;20118;-71
2022/08/26 01:40:34;;;;;;;0.22;0.22;;;;;;;23.85;68.07;101520.22;2105674;28;20086;-71
2022/08/26 01:41:38;;;;;;;0.20;0.20;;;;;;;23.82;68.21;101529.34;2102976;28;20550;-71
2022/08/26 01:42:42;;;;;;;0.20;0.20;;;;;;;23.81;68.27;101515.97;2114613;28;20055;-71
2022/08/26 01:43:47;;;;;;;0.20;0.20;;;;;;;23.85;68.10;101514.72;2114110;27;20360;-71
2022/08/26 01:44:53;;;;;;;0.20;0.20;;;;;;;23.85;68.09;101520.22;2113234;28;20078;-71
2022/08/26 01:45:57;;;;;;;0.22;0.22;;;;;;;23.85;68.16;101522.97;2114055;28;20127;-71
2022/08/26 01:47:01;;;;;;;0.20;0.20;;;;;;;23.89;67.87;101520.97;2106458;28;20505;-71
2022/08/26 01:48:11;;;;;;;0.30;0.30;;;;;;;23.91;67.73;101518.59;2108897;28;20501;-71
2022/08/26 01:49:15;;;;;;;0.20;0.20;;;;;;;23.89;67.80;101520.97;2109758;28;20514;-71
2022/08/26 01:50:21;;;;;;;0.20;0.20;;;;;;;23.90;67.87;101522.53;2097972;28;20056;-71
2022/08/26 01:51:35;;;;;;;0.20;0.20;;;;;;;23.89;68.13;101526.50;2097860;28;20075;-71
2022/08/26 01:52:41;;;;;;;0.25;0.25;;;;;;;23.90;67.92;101528.03;2101093;28;20108;-71
2022/08/26 01:53:46;;;;;;;0.20;0.20;;;;;;;23.93;67.90;101529.97;2106216;28;20064;-71
2022/08/26 01:54:49;;;;;;;0.20;0.20;;;;;;;23.91;68.10;101518.59;2097848;28;20128;-72
2022/08/26 01:55:56;;;;;;;0.30;0.30;;;;;;;23.96;67.73;101526.38;2105122;28;20062;-71
2022/08/26 01:57:00;;;;;;;0.30;0.30;;;;;;;23.94;67.92;101523.28;2114861;28;20534;-71
2022/08/26 01:58:08;;;;;;;0.30;0.30;;;;;;;23.96;67.78;101526.38;2098008;28;20052;-72
2022/08/26 01:59:13;;;;;;;0.20;0.20;;;;;;;23.93;68.06;101518.94;2106646;28;20051;-72
2022/08/26 02:00:17;;;;;;;0.30;0.30;;;;;;;23.90;68.11;101528.03;2113541;28;20079;-70
2022/08/26 02:01:21;;;;;;;0.30;0.30;;;;;;;23.87;68.30;101526.13;2105498;28;20177;-71
2022/08/26 02:02:30;;;;;;;;;;;;;;;23.51;69.19;101523.03;2109607;28;20059;-71
2022/08/26 02:03:35;;;;;;;0.30;0.30;;;;;;;23.60;69.33;101515.03;2105218;28;19928;-71
2022/08/26 02:04:50;;;;;;;0.30;0.30;;;;;;;23.63;69.23;101518.94;2113900;28;20056;-71
2022/08/26 02:05:54;;;;;;;0.30;0.30;;;;;;;23.63;69.48;101520.94;2113517;28;20075;-71
2022/08/26 02:07:03;;;;;;;0.30;0.30;;;;;;;23.62;69.61;101520.16;2101879;28;20048;-71
2022/08/26 02:08:06;;;;;;;0.20;0.20;;;;;;;23.64;69.08;101520.53;2113684;28;20047;-71
2022/08/26 02:09:11;;;;;;;0.30;0.30;;;;;;;23.67;68.83;101522.44;2113266;28;20517;-71
2022/08/26 02:10:15;;;;;;;0.28;0.28;;;;;;;23.61;69.35;101519.34;2112809;28;20083;-70
2022/08/26 02:11:21;;;;;;;0.30;0.30;;;;;;;23.61;69.10;101518.56;2113711;28;20138;-71
2022/08/26 02:12:26;;;;;;;0.30;0.30;;;;;;;23.62;69.41;101520.16;2112059;28;20513;-71
2022/08/26 02:13:31;;;;;;;0.20;0.20;;;;;;;23.60;69.29;101514.25;2112573;27;20565;-71
2022/08/26 02:14:36;;;;;;;0.20;0.20;;;;;;;23.60;69.25;101519.75;2113884;28;20051;-71
2022/08/26 02:15:47;;;;;;;0.20;0.20;;;;;;;23.58;69.34;101522.16;2113403;28;20058;-71
2022/08/26 02:16:51;;;;;;;0.20;0.20;;;;;;;23.53;69.76;101514.34;2113616;28;20071;-71
2022/08/26 02:17:55;;;;;;;0.20;0.20;;;;;;;23.46;69.28;101509.72;2114546;28;20597;-71
2022/08/26 02:19:00;;;;;;;0.20;0.20;;;;;;;23.40;69.46;101510.56;2114434;28;20039;-70
2022/08/26 02:20:06;;;;;;;0.20;0.20;;;;;;;23.31;69.69;101510.25;2113722;28;20123;-71
2022/08/26 02:21:17;;;;;;;0.30;0.30;;;;;;;23.25;69.88;101509.94;2110325;28;20082;-70
2022/08/26 02:22:22;;;;;;;0.20;0.20;;;;;;;23.23;69.69;101519.78;2106034;28;20419;-70
2022/08/26 02:23:27;;;;;;;0.25;0.25;;;;;;;23.21;69.81;101509.16;2109641;28;20354;-70
2022/08/26 02:24:48;;;;;;;0.20;0.20;;;;;;;23.05;70.28;101506.19;2112974;28;20444;-70
2022/08/26 02:25:56;;;;;;;0.28;0.28;;;;;;;23.13;69.71;101507.69;2114383;28;20054;-70
2022/08/26 02:27:00;;;;;;;0.20;0.20;;;;;;;23.19;69.87;101516.28;2113557;28;20111;-71
2022/08/26 02:28:02;;;;;;;0.20;0.20;;;;;;;23.20;69.70;101504.84;2110270;28;20123;-71
2022/08/26 02:29:10;;;;;;;0.20;0.20;;;;;;;23.20;70.05;101517.81;2105951;28;20055;-71
2022/08/26 02:30:15;;;;;;;0.30;0.30;;;;;;;23.19;70.15;101508.78;2112932;28;20123;-71
2022/08/26 02:31:19;;;;;;;0.30;0.30;;;;;;;23.07;70.42;101517.56;2112967;28;20439;-71
2022/08/26 02:32:21;;;;;;;0.20;0.20;;;;;;;22.97;70.37;101506.66;2114457;28;20055;-70
2022/08/26 02:33:25;;;;;;;0.20;0.20;;;;;;;22.99;70.37;101505.03;2111949;28;20098;-71
2022/08/26 02:34:30;;;;;;;0.20;0.20;;;;;;;22.95;70.60;101518.09;2112173;28;20052;-71
2022/08/26 02:35:35;;;;;;;0.20;0.20;;;;;;;22.90;70.89;101510.25;2114410;28;20047;-70
2022/08/26 02:36:37;;;;;;;0.20;0.20;;;;;;;22.88;70.80;101500.84;2112311;28;20150;-70
2022/08/26 02:37:41;;;;;;;0.20;0.20;;;;;;;22.89;70.93;101510.66;2106164;28;20102;-70
2022/08/26 02:38:43;;;;;;;0.25;0.25;;;;;;;22.91;71.22;101505.53;2097443;28;20082;-71
2022/08/26 02:39:49;;;;;;;0.20;0.20;;;;;;;22.95;70.67;101514.53;2110766;28;20456;-70
2022/08/26 02:40:53;;;;;;;0.20;0.20;;;;;;;22.96;70.81;101518.88;2106532;28;20052;-70
2022/08/26 02:41:56;;;;;;;0.20;0.20;;;;;;;22.99;70.29;101515.31;2098978;28;20067;-70
2022/08/26 02:42:58;;;;;;;0.20;0.20;;;;;;;22.98;70.15;101521.97;2110957;28;20127;-70
2022/08/26 02:44:02;;;;;;;0.20;0.20;;;;;;;23.01;70.15;101523.91;2111405;27;20049;-71
2022/08/26 02:45:07;;;;;;;0.30;0.30;;;;;;;23.01;70.38;101518.41;2113104;28;20050;-70
2022/08/26 02:46:10;;;;;;;0.25;0.25;;;;;;;23.02;70.17;101525.50;2109623;28;20384;-71
2022/08/26 02:47:22;;;;;;;0.30;0.30;;;;;;;23.00;69.93;101525.13;2111220;28;20056;-73
2022/08/26 02:48:27;;;;;;;0.20;0.20;;;;;;;23.00;70.11;101520.41;2103402;28;20056;-70
2022/08/26 02:49:29;;;;;;;0.20;0.20;;;;;;;23.03;69.93;101527.06;2096509;28;20097;-71
2022/08/26 02:50:33;;;;;;;0.20;0.20;;;;;;;23.06;69.92;101524.28;2096588;28;20088;-71
2022/08/26 02:51:35;;;;;;;0.20;0.20;;;;;;;23.08;69.75;101524.66;2096508;28;20570;-70
2022/08/26 02:52:39;;;;;;;0.20;0.20;;;;;;;23.09;69.44;101528.97;2099120;28;20055;-71
2022/08/26 02:53:41;;;;;;;0.20;0.20;;;;;;;23.10;69.54;101530.50;2097414;28;20052;-71
2022/08/26 02:54:44;;;;;;;0.20;0.20;;;;;;;23.12;69.37;101528.13;2100165;28;20051;-71
2022/08/26 02:55:48;;;;;;;0.20;0.20;;;;;;;23.12;69.75;101528.13;2105686;28;20108;-71
2022/08/26 02:56:51;;;;;;;0.20;0.20;;;;;;;23.12;69.50;101524.63;2112973;28;20464;-71
2022/08/26 02:57:53;;;;;;;0.30;0.30;;;;;;;23.11;69.72;101531.31;2098931;28;20052;-71
2022/08/26 02:58:56;;;;;;;0.20;0.20;;;;;;;23.15;69.38;101523.81;2099626;28;21170;-71
2022/08/26 02:59:59;;;;;;;0.20;0.20;;;;;;;23.16;69.47;101525.34;2105756;28;20130;-71
2022/08/26 03:01:02;;;;;;;0.20;0.20;;;;;;;23.20;69.43;101523.34;2112026;28;20074;-70
2022/08/26 03:02:06;;;;;;;0.20;0.20;;;;;;;23.21;69.42;101527.66;2111172;28;20043;-71
2022/08/26 03:03:09;;;;;;;0.20;0.20;;;;;;;23.22;69.13;101530.00;2105568;28;20098;-70
2022/08/26 03:04:11;;;;;;;0.20;0.20;;;;;;;23.22;69.47;101527.25;2111099;28;20443;-70
2022/08/26 03:05:16;;;;;;;0.20;0.20;;;;;;;23.22;69.27;101526.47;2112809;28;20100;-70
2022/08/26 03:06:19;;;;;;;0.20;0.20;;;;;;;23.24;69.47;101529.59;2100903;28;20052;-70
2022/08/26 03:07:21;;;;;;;0.30;0.30;;;;;;;23.23;69.49;101533.56;2098610;28;20131;-71
2022/08/26 03:08:23;;;;;;;0.30;0.30;;;;;;;23.21;69.44;101535.94;2105800;28;20108;-71
2022/08/26 03:09:27;;;;;;;0.20;0.20;;;;;;;23.23;69.31;101536.31;2110473;28;20048;-71
2022/08/26 03:10:30;;;;;;;0.30;0.30;;;;;;;23.23;69.36;101528.81;2111960;28;20099;-70
2022/08/26 03:11:36;;;;;;;0.30;0.30;;;;;;;23.24;69.38;101532.34;2104898;28;20565;-71
2022/08/26 03:12:39;;;;;;;0.30;0.30;;;;;;;23.22;69.00;101529.22;2110366;28;20090;-71
2022/08/26 03:13:42;;;;;;;0.20;0.20;;;;;;;23.23;69.27;101533.56;2112539;28;20105;-70
2022/08/26 03:14:45;;;;;;;0.20;0.20;;;;;;;23.22;69.05;101531.97;2105724;28;20127;-71
2022/08/26 03:15:47;;;;;;;0.22;0.22;;;;;;;23.19;69.24;101527.28;2110076;28;20101;-71
2022/08/26 03:16:52;;;;;;;0.20;0.20;;;;;;;23.16;69.10;101530.88;2112970;28;20047;-71
2022/08/26 03:17:56;;;;;;;0.30;0.30;;;;;;;23.09;69.12;101530.94;2097288;28;20467;-71
2022/08/26 03:18:58;;;;;;;0.30;0.30;;;;;;;23.05;69.67;101527.44;2096925;28;20051;-71
2022/08/26 03:20:02;;;;;;;0.30;0.30;;;;;;;23.02;69.36;101526.28;2096841;28;20072;-70
2022/08/26 03:21:05;;;;;;;0.20;0.20;;;;;;;22.96;69.59;101530.66;2097312;28;20514;-71
2022/08/26 03:22:08;;;;;;;0.30;0.30;;;;;;;22.94;69.56;101526.75;2104599;28;20401;-71
2022/08/26 03:23:11;;;;;;;0.20;0.20;;;;;;;22.92;69.89;101527.16;2108179;28;20047;-71
2022/08/26 03:24:16;;;;;;;0.20;0.20;;;;;;;22.92;69.99;101529.13;2097487;28;20124;-71
2022/08/26 03:25:21;;;;;;;0.30;0.30;;;;;;;22.91;69.52;101533.84;2105627;28;20131;-71
2022/08/26 03:26:30;;;;;;;0.20;0.20;;;;;;;22.91;69.96;101519.31;2102271;28;20180;-71
2022/08/26 03:27:34;;;;;;;0.20;0.20;;;;;;;22.92;69.86;101529.91;2099393;28;20464;-71
2022/08/26 03:30:38;;;;;;;0.30;0.30;;;;;;;22.95;69.88;101522.81;2104307;28;20468;-71
2022/08/26 03:31:29;;;;;;;0.20;0.20;;;;;;;22.87;69.80;101526.81;2077693;28;20219;-71
2022/08/26 03:32:31;;;;;;;0.20;0.20;;;;;;;22.89;69.86;101521.69;2092261;28;20500;-71
2022/08/26 03:33:34;;;;;;;0.20;0.20;;;;;;;22.87;69.82;101526.81;2105490;28;20048;-71
2022/08/26 03:34:36;;;;;;;0.22;0.22;;;;;;;22.86;69.80;101520.53;2101902;28;20049;-71
2022/08/26 03:35:42;;;;;;;0.30;0.30;;;;;;;22.84;69.63;101527.63;2098165;28;20060;-71
2022/08/26 03:36:45;;;;;;;0.20;0.20;;;;;;;22.78;70.03;101518.25;2099682;28;20056;-71
2022/08/26 03:37:47;;;;;;;0.20;0.20;;;;;;;22.78;69.83;101518.25;2107570;28;20051;-71
2022/08/26 03:38:51;;;;;;;0.20;0.20;;;;;;;22.77;69.88;101533.97;2100775;28;20087;-72
2022/08/26 03:39:53;;;;;;;0.22;0.22;;;;;;;22.72;70.12;101525.38;2104282;28;20119;-71
2022/08/26 03:40:56;;;;;;;0.20;0.20;;;;;;;22.71;70.17;101526.56;2109513;28;20086;-71
2022/08/26 03:41:58;;;;;;;0.30;0.30;;;;;;;22.69;70.16;101515.19;2098366;28;20131;-71
2022/08/26 03:43:04;;;;;;;0.30;0.30;;;;;;;22.65;70.24;101520.72;2106061;28;20185;-72
2022/08/26 03:44:07;;;;;;;0.20;0.20;;;;;;;22.61;70.37;101513.69;2106571;28;20189;-71
2022/08/26 03:45:12;;;;;;;0.20;0.20;;;;;;;22.57;70.69;101521.16;2105361;28;20047;-71
2022/08/26 03:46:16;;;;;;;0.25;0.25;;;;;;;22.51;70.87;101511.75;2105774;28;20488;-71
2022/08/26 03:47:19;;;;;;;0.20;0.20;;;;;;;22.48;70.73;101509.81;2105744;28;20055;-71
2022/08/26 03:48:21;;;;;;;0.20;0.20;;;;;;;22.48;70.68;101515.31;2097165;28;20052;-71
2022/08/26 03:49:24;;;;;;;0.20;0.20;;;;;;;22.47;70.83;101513.75;2096924;28;20044;-71
2022/08/26 03:50:29;;;;;;;0.20;0.20;;;;;;;22.42;70.98;101519.69;2108857;28;20048;-71
2022/08/26 03:51:37;;;;;;;0.20;0.20;;;;;;;22.40;71.47;101514.59;2097121;28;20056;-71
2022/08/26 03:52:40;;;;;;;0.20;0.20;;;;;;;22.40;71.50;101520.09;2100120;28;20086;-71
2022/08/26 03:53:46;;;;;;;0.20;0.20;;;;;;;22.36;71.44;101516.56;2099579;28;20052;-71
2022/08/26 03:54:49;;;;;;;0.20;0.20;;;;;;;22.38;70.82;101519.72;2097148;28;20104;-71
2022/08/26 03:55:52;;;;;;;0.20;0.20;;;;;;;22.39;70.65;101524.00;2104357;28;20112;-71
2022/08/26 03:56:54;;;;;;;0.20;0.20;;;;;;;22.41;70.87;101520.84;2110836;28;20056;-71
2022/08/26 03:57:59;;;;;;;0.20;0.20;;;;;;;22.41;71.20;101521.66;2097069;28;20496;-71
2022/08/26 03:59:03;;;;;;;0.20;0.20;;;;;;;22.42;70.91;101527.94;2096269;28;20048;-71
2022/08/26 04:00:13;;;;;;;0.20;0.20;;;;;;;22.42;71.02;101523.19;2099183;28;20045;-72
2022/08/26 04:01:19;;;;;;;0.20;0.20;;;;;;;22.39;70.73;101526.78;2113882;28;20052;-71
2022/08/26 04:02:22;;;;;;;0.25;0.25;;;;;;;22.39;70.87;101524.00;2113252;28;20052;-71
2022/08/26 04:04:47;;;;;;;0.20;0.20;;;;;;;22.39;71.04;101521.25;2106476;28;20521;-71
2022/08/26 04:05:50;;;;;;;0.30;0.30;;;;;;;22.42;70.81;101523.19;2098751;28;20504;-71
2022/08/26 04:06:57;;;;;;;0.30;0.30;;;;;;;22.41;70.68;101520.84;2106736;28;20044;-71
2022/08/26 04:07:59;;;;;;;0.30;0.30;;;;;;;22.36;71.30;101515.81;2115783;28;20082;-71
2022/08/26 04:09:06;;;;;;;0.30;0.30;;;;;;;22.37;71.15;101525.63;2115017;28;20051;-71
2022/08/26 04:10:09;;;;;;;0.40;0.40;;;;;;;22.35;70.91;101516.97;2114824;28;20051;-71
2022/08/26 04:11:17;;;;;;;0.40;0.40;;;;;;;22.32;71.05;101521.31;2115423;28;20047;-71
2022/08/26 04:12:19;;;;;;;0.30;0.30;;;;;;;22.30;71.71;101518.19;2098749;28;20496;-72
2022/08/26 04:13:22;;;;;;;0.30;0.30;;;;;;;22.31;71.69;101521.72;2102249;28;20091;-71
2022/08/26 04:14:26;;;;;;;0.30;0.30;;;;;;;22.28;71.60;101517.81;2107070;28;20058;-71
2022/08/26 04:15:30;;;;;;;0.35;0.35;;;;;;;22.28;71.42;101519.78;2114921;28;20122;-71
2022/08/26 04:16:32;;;;;;;0.30;0.30;;;;;;;22.25;71.42;101512.34;2114292;28;20050;-71
2022/08/26 04:17:35;;;;;;;0.30;0.30;;;;;;;22.20;71.78;101513.53;2114838;28;20055;-71
2022/08/26 04:18:37;;;;;;;0.30;0.30;;;;;;;22.17;71.69;101517.88;2113252;28;20104;-72
2022/08/26 04:19:48;;;;;;;0.30;0.30;;;;;;;22.15;71.36;101509.25;2113494;28;20044;-71
2022/08/26 04:20:50;;;;;;;0.30;0.30;;;;;;;22.17;71.70;101512.38;2115272;28;20138;-72
2022/08/26 04:21:54;;;;;;;0.40;0.40;;;;;;;22.17;71.60;101517.88;2114501;28;20104;-71
2022/08/26 04:22:56;;;;;;;0.30;0.30;;;;;;;22.09;71.85;101516.34;2113963;28;20175;-72
2022/08/26 04:23:58;;;;;;;0.40;0.40;;;;;;;22.09;72.14;101510.84;2115489;28;20039;-72
2022/08/26 04:25:04;;;;;;;0.40;0.40;;;;;;;22.07;71.93;101518.72;2106441;27;20048;-71
2022/08/26 04:26:08;;;;;;;0.30;0.30;;;;;;;22.07;71.65;101512.47;2109475;28;20127;-71
2022/08/26 04:27:11;;;;;;;0.40;0.40;;;;;;;22.10;71.98;101519.91;2115358;28;20502;-71
2022/08/26 04:28:13;;;;;;;0.30;0.30;;;;;;;22.09;71.87;101516.34;2114542;27;20109;-71
2022/08/26 04:29:19;;;;;;;0.30;0.30;;;;;;;22.11;72.34;101515.97;2114441;28;20060;-71
2022/08/26 04:30:22;;;;;;;0.30;0.30;;;;;;;22.10;71.95;101512.41;2115370;28;20093;-71
2022/08/26 04:31:27;;;;;;;0.40;0.40;;;;;;;22.06;72.08;101511.66;2097659;28;20463;-71
2022/08/26 04:32:31;;;;;;;0.32;0.32;;;;;;;22.02;72.05;101508.13;2100856;28;20052;-70
2022/08/26 04:33:35;;;;;;;0.30;0.30;;;;;;;22.01;71.99;101514.84;2115342;28;20155;-71
2022/08/26 04:34:42;;;;;;;0.40;0.40;;;;;;;21.97;72.72;101505.84;2113165;28;20503;-71
2022/08/26 04:35:46;;;;;;;0.45;0.45;;;;;;;21.96;72.27;101508.97;2110077;28;20051;-71
2022/08/26 04:36:49;;;;;;;0.30;0.30;;;;;;;21.89;72.84;101511.75;2106901;28;20055;-71
2022/08/26 04:37:52;;;;;;;0.30;0.30;;;;;;;21.85;73.09;101511.00;2113032;28;20052;-71
2022/08/26 04:38:54;;;;;;;0.40;0.40;;;;;;;21.85;72.76;101505.50;2104912;28;20052;-70
2022/08/26 04:39:57;;;;;;;0.40;0.40;;;;;;;21.86;72.49;101507.84;2106335;28;20575;-70
2022/08/26 04:41:00;;;;;;;0.40;0.40;;;;;;;21.83;72.64;101508.66;2113986;28;20075;-71
2022/08/26 04:42:03;;;;;;;0.40;0.40;;;;;;;21.80;73.18;101503.94;2112281;28;20495;-70
2022/08/26 04:43:04;;;;;;;0.50;0.50;;;;;;;21.80;72.62;101506.69;2098012;28;20065;-71
2022/08/26 04:44:08;;;;;;;0.30;0.30;;;;;;;21.80;72.89;101514.16;2109148;28;20467;-71
2022/08/26 04:45:10;;;;;;;0.40;0.40;;;;;;;21.79;73.07;101505.13;2113783;28;20127;-70
2022/08/26 04:46:18;;;;;;;0.40;0.40;;;;;;;21.77;72.83;101502.00;2115193;28;20052;-71
2022/08/26 04:47:20;;;;;;;0.50;0.50;;;;;;;21.78;73.10;101514.56;2112703;28;20047;-71
2022/08/26 04:48:23;;;;;;;0.40;0.40;;;;;;;21.77;73.03;101510.25;2112828;28;20468;-70
2022/08/26 04:49:26;;;;;;;0.40;0.40;;;;;;;21.73;73.51;101503.16;2109523;28;20517;-71
2022/08/26 04:50:29;;;;;;;0.47;0.47;;;;;;;21.67;73.79;101502.81;2106009;28;20527;-71
2022/08/26 04:51:32;;;;;;;0.40;0.40;;;;;;;21.63;73.82;101499.28;2113821;28;20052;-71
2022/08/26 04:52:35;;;;;;;0.47;0.47;;;;;;;21.64;73.61;101500.06;2110808;28;20462;-71
2022/08/26 04:53:38;;;;;;;0.50;0.50;;;;;;;21.66;74.03;101503.97;2106841;28;20048;-71
2022/08/26 04:54:40;;;;;;;0.40;0.40;;;;;;;21.70;73.73;101512.22;2103281;28;20131;-71
2022/08/26 04:55:42;;;;;;;0.50;0.50;;;;;;;21.73;73.71;101509.47;2102118;28;20048;-71
2022/08/26 04:56:48;;;;;;;0.40;0.40;;;;;;;21.74;73.84;101515.75;2114300;28;20052;-70
2022/08/26 04:57:50;;;;;;;0.40;0.40;;;;;;;21.74;73.67;101510.25;2098399;28;20547;-71
2022/08/26 04:58:53;;;;;;;0.40;0.40;;;;;;;21.73;73.80;101508.66;2098042;28;20041;-71
2022/08/26 04:59:55;;;;;;;0.50;0.50;;;;;;;21.72;74.09;101513.38;2098384;28;20048;-70
2022/08/26 05:00:59;;;;;;;0.50;0.50;;;;;;;21.74;73.64;101524.00;2098488;28;20044;-71
2022/08/26 05:02:03;;;;;;;0.50;0.50;;;;;;;21.73;73.67;101520.44;2105778;28;20114;-71
2022/08/26 05:03:06;;;;;;;0.40;0.40;;;;;;;21.70;73.70;101526.75;2115184;28;20055;-70
2022/08/26 05:04:12;;;;;;;0.40;0.40;;;;;;;21.72;74.03;101529.84;2106704;28;20052;-71